createdAt,value
2022-11-29T00:00:47.199Z,97.72
2022-11-29T00:03:14.757Z,97.13
2022-11-29T00:05:41.448Z,97.26
2022-11-29T00:08:08.062Z,97.66
2022-11-29T00:10:38.035Z,97.27
2022-11-29T00:13:05.226Z,97.24
2022-11-29T00:15:36.728Z,97.14
2022-11-29T00:18:04.747Z,97.17
2022-11-29T00:20:33.932Z,97.26
2022-11-29T00:23:01.069Z,97.87
2022-11-29T00:25:27.979Z,97.83
2022-11-29T00:27:54.520Z,98.01
2022-11-29T00:30:21.374Z,98.11
2022-11-29T00:32:48.209Z,98.35
2022-11-29T00:35:14.723Z,98.50
2022-11-29T00:37:41.218Z,98.44
2022-11-29T00:40:08.428Z,98.48
2022-11-29T00:42:34.849Z,98.23
2022-11-29T00:45:02.127Z,98.51
2022-11-29T00:47:29.056Z,98.61
2022-11-29T00:49:55.704Z,98.58
2022-11-29T00:52:22.175Z,98.82
2022-11-29T00:54:48.652Z,99.39
2022-11-29T00:57:15.114Z,99.33
2022-11-29T00:59:41.584Z,99.14
2022-11-29T01:02:08.104Z,99.21
2022-11-29T01:04:34.611Z,99.34
2022-11-29T01:07:01.096Z,99.25
2022-11-29T01:09:27.968Z,99.61
2022-11-29T01:11:54.425Z,99.49
2022-11-29T01:14:20.875Z,99.53
2022-11-29T01:16:47.332Z,99.17
2022-11-29T01:19:13.817Z,98.61
2022-11-29T01:21:41.179Z,99.20
2022-11-29T01:24:07.962Z,99.18
2022-11-29T01:26:34.573Z,99.02
2022-11-29T01:29:01.057Z,98.36
2022-11-29T01:31:33.590Z,98.09
2022-11-29T01:34:02.419Z,98.88
2022-11-29T01:36:29.772Z,98.58
2022-11-29T01:38:59.368Z,98.65
2022-11-29T01:41:28.411Z,98.35
2022-11-29T01:44:11.760Z,98.59
2022-11-29T01:46:40.443Z,98.76
2022-11-29T01:49:15.276Z,98.78
2022-11-29T01:51:45.731Z,98.42
2022-11-29T01:54:13.759Z,98.48
2022-11-29T01:56:41.769Z,98.27
2022-11-29T01:59:12.177Z,98.67
2022-11-29T02:01:38.952Z,98.46
2022-11-29T02:04:06.152Z,98.47
2022-11-29T02:06:33.395Z,98.20
2022-11-29T02:08:59.867Z,97.93
2022-11-29T02:11:36.513Z,98.27
2022-11-29T02:14:22.133Z,98.16
2022-11-29T02:17:05.575Z,98.36
2022-11-29T02:20:05.628Z,97.83
2022-11-29T02:22:47.255Z,98.56
2022-11-29T02:25:55.762Z,99.00
2022-11-29T02:28:50.580Z,98.44
2022-11-29T02:31:52.279Z,98.43
2022-11-29T02:34:32.726Z,98.42
2022-11-29T02:37:22.544Z,98.72
2022-11-29T02:39:58.434Z,98.84
2022-11-29T02:42:55.781Z,98.87
2022-11-29T02:45:34.616Z,98.87
2022-11-29T02:48:27.226Z,99.07
2022-11-29T02:51:11.740Z,98.96
2022-11-29T02:53:49.023Z,98.90
2022-11-29T02:56:25.079Z,99.33
2022-11-29T02:58:59.082Z,98.96
2022-11-29T03:01:46.301Z,99.53
2022-11-29T03:04:45.371Z,99.28
2022-11-29T03:07:39.663Z,99.37
2022-11-29T03:10:28.194Z,99.50
2022-11-29T03:12:55.638Z,99.17
2022-11-29T03:15:30.630Z,99.45
2022-11-29T03:18:03.559Z,99.51
2022-11-29T03:20:45.509Z,98.89
2022-11-29T03:23:25.778Z,99.37
2022-11-29T03:26:33.080Z,99.15
2022-11-29T03:29:11.831Z,99.25
2022-11-29T03:32:03.244Z,100.00
2022-11-29T03:34:54.298Z,100.00
2022-11-29T03:37:27.194Z,100.00
2022-11-29T03:39:59.799Z,100.00
2022-11-29T03:42:32.845Z,100.00
2022-11-29T03:45:18.893Z,100.00
2022-11-29T03:47:55.998Z,100.00
2022-11-29T03:50:33.624Z,100.00
2022-11-29T03:53:13.913Z,100.00
2022-11-29T03:55:59.816Z,100.00
2022-11-29T03:59:07.715Z,100.00
2022-11-29T04:01:34.176Z,100.00
2022-11-29T04:04:28.333Z,100.00
2022-11-29T04:07:00.860Z,100.00
2022-11-29T04:09:58.789Z,100.00
2022-11-29T04:12:28.232Z,100.00
2022-11-29T04:15:15.609Z,100.00
2022-11-29T04:18:00.791Z,100.00
2022-11-29T04:20:54.700Z,100.00
2022-11-29T04:23:46.627Z,100.00
2022-11-29T04:26:58.798Z,100.00
2022-11-29T04:29:43.916Z,100.00
2022-11-29T04:32:19.123Z,100.00
2022-11-29T04:35:07.316Z,100.00
2022-11-29T04:37:58.934Z,100.00
2022-11-29T04:40:41.757Z,100.00
2022-11-29T04:43:19.825Z,100.00
2022-11-29T04:45:56.991Z,100.00
2022-11-29T04:48:54.151Z,100.00
2022-11-29T04:51:46.741Z,100.00
2022-11-29T04:54:43.503Z,100.00
2022-11-29T04:57:25.644Z,100.00
2022-11-29T05:00:01.958Z,100.00
2022-11-29T05:02:42.089Z,100.00
2022-11-29T05:05:27.559Z,100.00
2022-11-29T05:08:10.668Z,100.00
2022-11-29T05:11:03.428Z,100.00
2022-11-29T05:13:53.112Z,100.00
2022-11-29T05:17:01.009Z,100.00
2022-11-29T05:19:37.163Z,100.00
2022-11-29T05:22:12.496Z,100.00
2022-11-29T05:25:00.859Z,100.00
2022-11-29T05:27:27.469Z,100.00
2022-11-29T05:29:53.851Z,100.00
2022-11-29T05:32:30.084Z,100.00
2022-11-29T05:35:24.745Z,100.00
2022-11-29T05:38:14.013Z,100.00
2022-11-29T05:40:46.432Z,100.00
2022-11-29T05:43:40.415Z,100.00
2022-11-29T05:46:49.881Z,100.00
2022-11-29T05:49:25.842Z,100.00
2022-11-29T05:52:14.160Z,100.00
2022-11-29T05:55:19.405Z,100.00
2022-11-29T05:58:03.864Z,100.00
2022-11-29T06:00:52.117Z,100.00
2022-11-29T06:03:39.385Z,100.00
2022-11-29T06:06:19.072Z,100.00
2022-11-29T06:08:56.983Z,100.00
2022-11-29T06:11:46.831Z,100.00
2022-11-29T06:14:16.004Z,100.00
2022-11-29T06:16:56.809Z,100.00
2022-11-29T06:19:49.126Z,100.00
2022-11-29T06:22:53.359Z,100.00
2022-11-29T06:25:44.186Z,100.00
2022-11-29T06:28:23.790Z,100.00
2022-11-29T06:31:11.972Z,100.00
2022-11-29T06:34:09.318Z,100.00
2022-11-29T06:36:38.607Z,100.00
2022-11-29T06:39:05.951Z,100.00
2022-11-29T06:41:32.773Z,100.00
2022-11-29T06:43:59.746Z,100.00
2022-11-29T06:46:41.914Z,100.00
2022-11-29T06:49:28.046Z,100.00
2022-11-29T06:52:32.371Z,100.00
2022-11-29T06:55:19.724Z,100.00
2022-11-29T06:57:49.143Z,100.00
2022-11-29T07:00:27.060Z,100.00
2022-11-29T07:03:06.614Z,100.00
2022-11-29T07:05:35.056Z,100.00
2022-11-29T07:08:10.674Z,100.00
2022-11-29T07:10:39.601Z,100.00
2022-11-29T07:13:06.732Z,100.00
2022-11-29T07:15:33.761Z,100.00
2022-11-29T07:18:09.014Z,100.00
2022-11-29T07:21:06.361Z,100.00
2022-11-29T07:23:42.598Z,100.00
2022-11-29T07:26:42.216Z,100.00
2022-11-29T07:29:42.876Z,100.00
2022-11-29T07:32:31.015Z,100.00
2022-11-29T07:35:12.536Z,100.00
2022-11-29T07:37:38.954Z,100.00
2022-11-29T07:40:23.753Z,100.00
2022-11-29T07:42:53.144Z,100.00
2022-11-29T07:45:27.748Z,100.00
2022-11-29T07:47:54.580Z,100.00
2022-11-29T07:50:21.718Z,100.00
2022-11-29T07:52:49.088Z,100.00
2022-11-29T07:55:19.583Z,100.00
2022-11-29T07:57:46.836Z,100.00
2022-11-29T08:00:14.007Z,100.00
2022-11-29T08:02:41.153Z,100.00
2022-11-29T08:05:08.593Z,100.00
2022-11-29T08:07:37.287Z,100.00
2022-11-29T08:10:06.343Z,100.00
2022-11-29T08:12:33.241Z,100.00
2022-11-29T08:14:59.884Z,100.00
2022-11-29T08:17:26.968Z,100.00
2022-11-29T08:19:53.652Z,100.00
2022-11-29T08:22:20.108Z,100.00
2022-11-29T08:24:47.032Z,100.00
2022-11-29T08:27:13.737Z,100.00
2022-11-29T08:29:40.225Z,100.00
2022-11-29T08:32:06.859Z,100.00
2022-11-29T08:34:35.619Z,100.00
2022-11-29T08:37:02.419Z,100.00
2022-11-29T08:39:29.857Z,100.00
2022-11-29T08:41:56.635Z,100.00
2022-11-29T08:44:23.154Z,100.00
2022-11-29T08:47:08.427Z,100.00
2022-11-29T08:49:34.907Z,100.00
2022-11-29T08:52:20.877Z,100.00
2022-11-29T08:54:47.709Z,100.00
2022-11-29T08:57:39.308Z,100.00
2022-11-29T09:00:01.164Z,100.00
2022-11-29T09:02:30.177Z,100.00
2022-11-29T09:04:57.959Z,100.00
2022-11-29T09:07:24.544Z,100.00
2022-11-29T09:09:50.994Z,100.00
2022-11-29T09:12:17.467Z,100.00
2022-11-29T09:14:44.189Z,100.00
2022-11-29T09:17:10.824Z,100.00
2022-11-29T09:19:37.360Z,100.00
2022-11-29T09:22:03.918Z,100.00
2022-11-29T09:24:31.126Z,100.00
2022-11-29T09:26:58.010Z,100.00
2022-11-29T09:29:24.540Z,100.00
2022-11-29T09:31:51.119Z,100.00
2022-11-29T09:34:21.221Z,100.00
2022-11-29T09:36:48.152Z,100.00
2022-11-29T09:39:14.647Z,100.00
2022-11-29T09:42:00.648Z,100.00
2022-11-29T09:44:39.126Z,100.00
2022-11-29T09:47:36.668Z,100.00
2022-11-29T09:50:43.171Z,100.00
2022-11-29T09:53:54.357Z,100.00
2022-11-29T09:56:42.684Z,100.00
2022-11-29T09:59:14.049Z,100.00
2022-11-29T10:01:48.019Z,100.00
2022-11-29T10:04:21.424Z,100.00
2022-11-29T10:06:59.031Z,100.00
2022-11-29T10:09:44.826Z,100.00
2022-11-29T10:12:23.627Z,100.00
2022-11-29T10:14:57.904Z,100.00
2022-11-29T10:17:47.956Z,100.00
2022-11-29T10:20:27.213Z,100.00
2022-11-29T10:23:04.640Z,100.00
2022-11-29T10:25:42.166Z,100.00
2022-11-29T10:28:19.910Z,100.00
2022-11-29T10:30:47.247Z,100.00
2022-11-29T10:33:25.476Z,100.00
2022-11-29T10:35:57.734Z,100.00
2022-11-29T10:38:32.366Z,100.00
2022-11-29T10:41:09.666Z,100.00
2022-11-29T10:43:37.456Z,100.00
2022-11-29T10:46:07.040Z,100.00
2022-11-29T10:48:34.273Z,100.00
2022-11-29T10:51:01.933Z,100.00
2022-11-29T10:53:35.864Z,100.00
2022-11-29T10:56:07.247Z,100.00
2022-11-29T10:58:34.726Z,100.00
2022-11-29T11:01:06.823Z,100.00
2022-11-29T11:03:41.136Z,100.00
2022-11-29T11:06:15.779Z,100.00
2022-11-29T11:08:45.848Z,100.00
2022-11-29T11:11:13.265Z,100.00
2022-11-29T11:13:41.881Z,100.00
2022-11-29T11:16:18.063Z,100.00
2022-11-29T11:18:47.228Z,100.00
2022-11-29T11:21:19.710Z,100.00
2022-11-29T11:23:56.560Z,100.00
2022-11-29T11:26:23.515Z,100.00
2022-11-29T11:29:03.310Z,100.00
2022-11-29T11:31:34.137Z,100.00
2022-11-29T11:34:34.248Z,100.00
2022-11-29T11:37:20.737Z,100.00
2022-11-29T11:39:49.852Z,100.00
2022-11-29T11:42:38.299Z,100.00
2022-11-29T11:45:19.720Z,100.00
2022-11-29T11:47:52.993Z,100.00
2022-11-29T11:50:44.260Z,100.00
2022-11-29T11:53:31.316Z,99.48
2022-11-29T11:56:02.737Z,100.00
2022-11-29T11:58:32.424Z,100.00
2022-11-29T12:01:08.165Z,100.00
2022-11-29T12:03:56.057Z,98.04
2022-11-29T12:06:37.144Z,98.58
2022-11-29T12:09:14.145Z,99.28
2022-11-29T12:11:44.414Z,99.79
2022-11-29T12:14:22.558Z,99.47
2022-11-29T12:16:52.235Z,99.55
2022-11-29T12:19:23.432Z,99.89
2022-11-29T12:21:55.937Z,99.90
2022-11-29T12:24:52.405Z,99.56
2022-11-29T12:27:18.884Z,98.76
2022-11-29T12:29:45.405Z,98.28
2022-11-29T12:32:38.499Z,98.30
2022-11-29T12:35:36.936Z,99.17
2022-11-29T12:38:19.714Z,99.50
2022-11-29T12:40:59.614Z,99.23
2022-11-29T12:43:47.761Z,99.65
2022-11-29T12:46:26.097Z,99.85
2022-11-29T12:49:22.326Z,100.00
2022-11-29T12:52:18.072Z,100.00
2022-11-29T12:55:19.760Z,100.00
2022-11-29T12:57:54.625Z,100.00
2022-11-29T13:00:21.320Z,99.88
2022-11-29T13:03:06.653Z,99.68
2022-11-29T13:06:02.689Z,99.26
2022-11-29T13:09:02.263Z,98.88
2022-11-29T13:11:36.560Z,99.29
2022-11-29T13:14:41.058Z,98.46
2022-11-29T13:17:04.127Z,97.90
2022-11-29T13:19:49.475Z,97.48
2022-11-29T13:22:27.918Z,98.19
2022-11-29T13:25:01.582Z,98.20
2022-11-29T13:27:43.318Z,98.13
2022-11-29T13:30:14.802Z,98.16
2022-11-29T13:33:13.164Z,98.19
2022-11-29T13:36:21.964Z,98.50
2022-11-29T13:39:07.578Z,98.52
2022-11-29T13:41:59.052Z,98.97
2022-11-29T13:44:47.501Z,99.36
2022-11-29T13:47:17.080Z,98.98
2022-11-29T13:49:57.781Z,98.75
2022-11-29T13:52:36.357Z,99.26
2022-11-29T13:55:11.875Z,99.05
2022-11-29T14:00:44.258Z,99.23
2022-11-29T14:03:28.923Z,99.59
2022-11-29T14:06:02.075Z,98.77
2022-11-29T14:08:48.050Z,99.32
2022-11-29T14:11:27.444Z,99.60
2022-11-29T14:14:08.790Z,99.66
2022-11-29T14:16:48.777Z,99.75
2022-11-29T14:19:30.087Z,99.45
2022-11-29T14:22:02.746Z,99.45
2022-11-29T14:24:32.481Z,99.26
2022-11-29T14:27:08.835Z,99.01
2022-11-29T14:29:47.381Z,97.66
2022-11-29T14:32:45.779Z,97.96
2022-11-29T14:35:12.775Z,99.18
2022-11-29T14:37:52.258Z,99.73
2022-11-29T14:40:34.008Z,99.86
2022-11-29T14:43:02.738Z,99.64
2022-11-29T14:45:34.566Z,99.95
2022-11-29T14:48:04.532Z,100.00
2022-11-29T14:50:40.021Z,100.00
2022-11-29T14:53:27.819Z,100.00
2022-11-29T14:56:42.570Z,100.00
2022-11-29T14:59:45.294Z,100.00
2022-11-29T15:02:32.310Z,100.00
2022-11-29T15:05:12.213Z,100.00
2022-11-29T15:07:44.559Z,100.00
2022-11-29T15:10:20.060Z,100.00
2022-11-29T15:12:49.229Z,100.00
2022-11-29T15:15:36.601Z,100.00
2022-11-29T15:18:36.597Z,100.00
2022-11-29T15:21:30.889Z,100.00
2022-11-29T15:24:09.405Z,100.00
2022-11-29T15:26:35.929Z,100.00
2022-11-29T15:29:16.948Z,100.00
2022-11-29T15:31:44.646Z,100.00
2022-11-29T15:34:31.512Z,100.00
2022-11-29T15:37:00.013Z,100.00
2022-11-29T15:39:36.399Z,100.00
2022-11-29T15:42:14.036Z,100.00
2022-11-29T15:44:48.721Z,100.00
2022-11-29T15:47:26.729Z,100.00
2022-11-29T15:49:54.274Z,100.00
2022-11-29T15:52:34.784Z,100.00
2022-11-29T15:55:05.778Z,100.00
2022-11-29T15:57:38.159Z,100.00
2022-11-29T16:00:07.876Z,100.00
2022-11-29T16:02:39.433Z,100.00
2022-11-29T16:05:20.272Z,100.00
2022-11-29T16:07:49.510Z,100.00
2022-11-29T16:10:34.847Z,100.00
2022-11-29T16:13:31.569Z,100.00
2022-11-29T16:16:16.107Z,100.00
2022-11-29T16:18:46.380Z,100.00
2022-11-29T16:21:26.782Z,100.00
2022-11-29T16:23:54.008Z,100.00
2022-11-29T16:26:26.433Z,100.00
2022-11-29T16:28:56.977Z,100.00
2022-11-29T16:31:30.955Z,100.00
2022-11-29T16:34:05.643Z,100.00
2022-11-29T16:36:32.257Z,100.00
2022-11-29T16:39:24.454Z,100.00
2022-11-29T16:42:15.010Z,100.00
2022-11-29T16:44:41.420Z,100.00
2022-11-29T16:47:29.514Z,100.00
2022-11-29T16:50:04.195Z,100.00
2022-11-29T16:52:32.935Z,100.00
2022-11-29T16:55:00.094Z,100.00
2022-11-29T16:57:28.977Z,100.00
2022-11-29T16:59:55.533Z,100.00
2022-11-29T17:02:22.461Z,100.00
2022-11-29T17:04:50.872Z,100.00
2022-11-29T17:07:26.455Z,100.00
2022-11-29T17:09:53.497Z,100.00
2022-11-29T17:12:20.102Z,100.00
2022-11-29T17:14:46.811Z,100.00
2022-11-29T17:17:18.418Z,100.00
2022-11-29T17:19:45.348Z,100.00
2022-11-29T17:22:12.464Z,100.00
2022-11-29T17:24:44.773Z,100.00
2022-11-29T17:27:14.254Z,100.00
2022-11-29T17:29:40.710Z,100.00
2022-11-29T17:32:07.256Z,100.00
2022-11-29T17:34:33.873Z,100.00
2022-11-29T17:37:00.750Z,100.00
2022-11-29T17:39:27.906Z,100.00
2022-11-29T17:41:54.386Z,100.00
2022-11-29T17:44:20.863Z,100.00
2022-11-29T17:46:47.387Z,100.00
2022-11-29T17:49:13.898Z,100.00
2022-11-29T17:51:51.584Z,100.00
2022-11-29T17:54:19.197Z,100.00
2022-11-29T17:56:45.650Z,100.00
2022-11-29T17:59:12.105Z,100.00
2022-11-29T18:01:38.751Z,100.00
2022-11-29T18:04:05.991Z,100.00
2022-11-29T18:06:40.261Z,100.00
2022-11-29T18:09:09.030Z,100.00
2022-11-29T18:11:47.533Z,100.00
2022-11-29T18:14:23.312Z,100.00
2022-11-29T18:16:50.319Z,100.00
2022-11-29T18:19:19.984Z,100.00
2022-11-29T18:21:47.129Z,100.00
2022-11-29T18:24:13.928Z,100.00
2022-11-29T18:26:41.286Z,100.00
2022-11-29T18:29:08.566Z,100.00
2022-11-29T18:31:37.743Z,100.00
2022-11-29T18:34:07.090Z,100.00
2022-11-29T18:36:37.071Z,100.00
2022-11-29T18:39:07.254Z,100.00
2022-11-29T18:41:33.983Z,100.00
2022-11-29T18:44:04.391Z,100.00
2022-11-29T18:46:36.561Z,100.00
2022-11-29T18:49:05.623Z,100.00
2022-11-29T18:51:33.281Z,100.00
2022-11-29T18:54:00.967Z,100.00
2022-11-29T18:56:30.562Z,100.00
2022-11-29T18:59:04.194Z,100.00
2022-11-29T19:01:33.851Z,100.00
2022-11-29T19:04:02.700Z,100.00
2022-11-29T19:06:39.310Z,100.00
2022-11-29T19:09:08.498Z,100.00
2022-11-29T19:11:35.545Z,100.00
2022-11-29T19:14:04.544Z,100.00
2022-11-29T19:16:33.925Z,100.00
2022-11-29T19:19:01.976Z,100.00
2022-11-29T19:21:31.912Z,100.00
2022-11-29T19:24:04.157Z,100.00
2022-11-29T19:26:31.962Z,100.00
2022-11-29T19:29:00.343Z,100.00
2022-11-29T19:31:28.275Z,100.00
2022-11-29T19:33:55.654Z,100.00
2022-11-29T19:36:27.935Z,100.00
2022-11-29T19:38:55.325Z,100.00
2022-11-29T19:41:26.762Z,100.00
2022-11-29T19:43:55.635Z,100.00
2022-11-29T19:46:25.764Z,100.00
2022-11-29T19:48:54.202Z,100.00
2022-11-29T19:51:21.949Z,100.00
2022-11-29T19:53:52.625Z,100.00
2022-11-29T19:56:20.540Z,100.00
2022-11-29T19:58:48.756Z,100.00
2022-11-29T20:01:22.325Z,100.00
2022-11-29T20:03:49.531Z,100.00
2022-11-29T20:06:16.927Z,100.00
2022-11-29T20:08:43.831Z,100.00
2022-11-29T20:11:13.371Z,100.00
2022-11-29T20:13:41.746Z,100.00
2022-11-29T20:16:10.880Z,100.00
2022-11-29T20:18:40.092Z,100.00
2022-11-29T20:21:09.191Z,100.00
2022-11-29T20:23:35.687Z,100.00
2022-11-29T20:26:02.793Z,100.00
2022-11-29T20:28:30.077Z,100.00
2022-11-29T20:30:56.850Z,100.00
2022-11-29T20:33:25.457Z,100.00
2022-11-29T20:36:03.739Z,100.00
2022-11-29T20:38:39.168Z,100.00
2022-11-29T20:41:16.959Z,100.00
2022-11-29T20:43:58.159Z,100.00
2022-11-29T20:46:25.779Z,100.00
2022-11-29T20:48:53.628Z,100.00
2022-11-29T20:51:26.139Z,100.00
2022-11-29T20:53:52.716Z,100.00
2022-11-29T20:56:19.248Z,100.00
2022-11-29T20:58:45.720Z,100.00
2022-11-29T21:01:12.301Z,100.00
2022-11-29T21:03:38.858Z,100.00
2022-11-29T21:06:06.289Z,100.00
2022-11-29T21:08:33.664Z,100.00
2022-11-29T21:11:10.141Z,100.00
2022-11-29T21:13:37.255Z,100.00
2022-11-29T21:16:04.386Z,100.00
2022-11-29T21:18:31.947Z,100.00
2022-11-29T21:21:25.063Z,100.00
2022-11-29T21:24:07.686Z,100.00
2022-11-29T21:26:49.142Z,100.00
2022-11-29T21:29:17.993Z,100.00
2022-11-29T21:31:45.839Z,100.00
2022-11-29T21:34:13.136Z,100.00
2022-11-29T21:36:40.160Z,100.00
2022-11-29T21:39:09.660Z,100.00
2022-11-29T21:41:36.386Z,100.00
2022-11-29T21:44:07.570Z,100.00
2022-11-29T21:46:34.809Z,100.00
2022-11-29T21:49:01.405Z,100.00
2022-11-29T21:51:28.067Z,100.00
2022-11-29T21:53:54.593Z,100.00
2022-11-29T21:56:21.007Z,100.00
2022-11-29T21:58:47.509Z,100.00
2022-11-29T22:01:16.196Z,100.00
2022-11-29T22:03:43.497Z,100.00
2022-11-29T22:06:13.436Z,100.00
2022-11-29T22:08:41.157Z,100.00
2022-11-29T22:11:10.381Z,100.00
2022-11-29T22:13:58.208Z,100.00
2022-11-29T22:16:24.945Z,100.00
2022-11-29T22:18:51.580Z,100.00
2022-11-29T22:21:18.050Z,100.00
2022-11-29T22:23:44.517Z,100.00
2022-11-29T22:26:11.816Z,100.00
2022-11-29T22:28:38.294Z,100.00
2022-11-29T22:31:08.550Z,100.00
2022-11-29T22:33:36.255Z,100.00
2022-11-29T22:36:11.396Z,100.00
2022-11-29T22:38:38.596Z,100.00
2022-11-29T22:41:13.386Z,100.00
2022-11-29T22:43:41.186Z,100.00
2022-11-29T22:46:16.075Z,100.00
2022-11-29T22:48:44.005Z,100.00
2022-11-29T22:51:15.912Z,100.00
2022-11-29T22:53:49.670Z,100.00
2022-11-29T22:56:16.758Z,100.00
2022-11-29T22:58:45.334Z,100.00
2022-11-29T23:01:14.640Z,100.00
2022-11-29T23:03:53.691Z,100.00
2022-11-29T23:06:52.443Z,100.00
2022-11-29T23:09:22.117Z,100.00
2022-11-29T23:11:54.203Z,100.00
2022-11-29T23:14:22.174Z,100.00
2022-11-29T23:16:49.020Z,100.00
2022-11-29T23:19:16.565Z,100.00
2022-11-29T23:21:45.760Z,100.00
2022-11-29T23:24:12.820Z,100.00
2022-11-29T23:26:43.232Z,100.00
2022-11-29T23:29:12.781Z,100.00
2022-11-29T23:31:39.729Z,100.00
2022-11-29T23:34:06.441Z,100.00
2022-11-29T23:36:33.695Z,100.00
2022-11-29T23:39:04.445Z,100.00
2022-11-29T23:41:30.998Z,100.00
2022-11-29T23:43:59.558Z,100.00
2022-11-29T23:46:26.640Z,100.00
2022-11-29T23:48:53.294Z,100.00
2022-11-29T23:51:20.373Z,100.00
2022-11-29T23:53:51.359Z,100.00
2022-11-29T23:56:18.850Z,100.00
2022-11-29T23:58:45.858Z,100.00
